sensor_id;sensor_type;location;lat;lon;timestamp;P1;durP1;ratioP1;P2;durP2;ratioP2
13291;SDS011;6714;53.056;8.690;2023-07-29T00:01:10;5.17;;;4.77;;
13291;SDS011;6714;53.056;8.690;2023-07-29T00:03:55;5.20;;;4.70;;
13291;SDS011;6714;53.056;8.690;2023-07-29T00:06:37;6.57;;;5.17;;
13291;SDS011;6714;53.056;8.690;2023-07-29T00:09:20;6.00;;;5.40;;
13291;SDS011;6714;53.056;8.690;2023-07-29T00:12:03;6.90;;;5.43;;
13291;SDS011;6714;53.056;8.690;2023-07-29T00:14:45;5.37;;;4.87;;
13291;SDS011;6714;53.056;8.690;2023-07-29T00:17:28;5.50;;;5.07;;
13291;SDS011;6714;53.056;8.690;2023-07-29T00:20:12;6.90;;;5.47;;
13291;SDS011;6714;53.056;8.690;2023-07-29T00:22:55;6.20;;;5.60;;
13291;SDS011;6714;53.056;8.690;2023-07-29T00:25:38;5.63;;;5.23;;
13291;SDS011;6714;53.056;8.690;2023-07-29T00:28:21;5.47;;;5.07;;
13291;SDS011;6714;53.056;8.690;2023-07-29T00:31:03;9.10;;;5.50;;
13291;SDS011;6714;53.056;8.690;2023-07-29T00:33:46;5.20;;;4.80;;
13291;SDS011;6714;53.056;8.690;2023-07-29T00:36:30;5.90;;;5.40;;
13291;SDS011;6714;53.056;8.690;2023-07-29T00:39:14;6.87;;;6.10;;
13291;SDS011;6714;53.056;8.690;2023-07-29T00:41:57;5.80;;;5.30;;
13291;SDS011;6714;53.056;8.690;2023-07-29T00:44:39;9.30;;;5.90;;
13291;SDS011;6714;53.056;8.690;2023-07-29T00:47:22;6.90;;;6.20;;
13291;SDS011;6714;53.056;8.690;2023-07-29T00:50:05;5.30;;;4.80;;
13291;SDS011;6714;53.056;8.690;2023-07-29T00:52:50;6.17;;;5.57;;
13291;SDS011;6714;53.056;8.690;2023-07-29T00:55:32;6.97;;;6.13;;
13291;SDS011;6714;53.056;8.690;2023-07-29T00:58:15;5.13;;;4.73;;
13291;SDS011;6714;53.056;8.690;2023-07-29T01:00:57;6.90;;;5.13;;
13291;SDS011;6714;53.056;8.690;2023-07-29T01:03:40;6.50;;;5.90;;
13291;SDS011;6714;53.056;8.690;2023-07-29T01:06:27;5.90;;;4.97;;
13291;SDS011;6714;53.056;8.690;2023-07-29T01:09:13;6.17;;;5.10;;
13291;SDS011;6714;53.056;8.690;2023-07-29T01:12:01;5.73;;;4.87;;
13291;SDS011;6714;53.056;8.690;2023-07-29T01:14:51;7.37;;;4.93;;
13291;SDS011;6714;53.056;8.690;2023-07-29T01:17:39;7.23;;;5.17;;
13291;SDS011;6714;53.056;8.690;2023-07-29T01:20:23;6.07;;;5.47;;
13291;SDS011;6714;53.056;8.690;2023-07-29T01:23:06;6.63;;;5.93;;
13291;SDS011;6714;53.056;8.690;2023-07-29T01:25:50;8.23;;;6.50;;
13291;SDS011;6714;53.056;8.690;2023-07-29T01:28:32;7.90;;;7.13;;
13291;SDS011;6714;53.056;8.690;2023-07-29T01:31:16;6.93;;;6.23;;
13291;SDS011;6714;53.056;8.690;2023-07-29T01:34:02;6.30;;;5.73;;
13291;SDS011;6714;53.056;8.690;2023-07-29T01:36:47;6.70;;;6.10;;
13291;SDS011;6714;53.056;8.690;2023-07-29T01:39:32;6.93;;;6.23;;
13291;SDS011;6714;53.056;8.690;2023-07-29T01:42:16;11.90;;;8.13;;
13291;SDS011;6714;53.056;8.690;2023-07-29T01:44:59;9.50;;;7.33;;
13291;SDS011;6714;53.056;8.690;2023-07-29T01:47:42;7.70;;;6.93;;
13291;SDS011;6714;53.056;8.690;2023-07-29T01:50:25;7.27;;;6.57;;
13291;SDS011;6714;53.056;8.690;2023-07-29T01:53:07;8.20;;;6.67;;
13291;SDS011;6714;53.056;8.690;2023-07-29T01:55:50;9.53;;;6.17;;
13291;SDS011;6714;53.056;8.690;2023-07-29T01:58:34;8.50;;;6.57;;
13291;SDS011;6714;53.056;8.690;2023-07-29T02:01:16;8.50;;;7.00;;
13291;SDS011;6714;53.056;8.690;2023-07-29T02:03:59;6.23;;;5.63;;
13291;SDS011;6714;53.056;8.690;2023-07-29T02:06:41;7.07;;;6.30;;
13291;SDS011;6714;53.056;8.690;2023-07-29T02:09:24;6.70;;;6.00;;
13291;SDS011;6714;53.056;8.690;2023-07-29T02:12:07;9.40;;;6.40;;
13291;SDS011;6714;53.056;8.690;2023-07-29T02:14:51;7.57;;;6.63;;
13291;SDS011;6714;53.056;8.690;2023-07-29T02:17:34;8.10;;;7.30;;
13291;SDS011;6714;53.056;8.690;2023-07-29T02:20:16;8.60;;;6.13;;
13291;SDS011;6714;53.056;8.690;2023-07-29T02:22:59;7.50;;;5.93;;
13291;SDS011;6714;53.056;8.690;2023-07-29T02:25:41;6.07;;;5.57;;
13291;SDS011;6714;53.056;8.690;2023-07-29T02:28:24;8.00;;;5.77;;
13291;SDS011;6714;53.056;8.690;2023-07-29T02:31:12;5.97;;;5.47;;
13291;SDS011;6714;53.056;8.690;2023-07-29T02:33:55;6.60;;;5.90;;
13291;SDS011;6714;53.056;8.690;2023-07-29T02:36:38;5.77;;;5.27;;
13291;SDS011;6714;53.056;8.690;2023-07-29T02:39:21;5.63;;;5.13;;
13291;SDS011;6714;53.056;8.690;2023-07-29T02:42:03;6.60;;;6.00;;
13291;SDS011;6714;53.056;8.690;2023-07-29T02:44:46;7.27;;;6.57;;
13291;SDS011;6714;53.056;8.690;2023-07-29T02:47:30;7.33;;;6.30;;
13291;SDS011;6714;53.056;8.690;2023-07-29T02:50:12;9.03;;;7.00;;
13291;SDS011;6714;53.056;8.690;2023-07-29T02:52:55;8.27;;;7.57;;
13291;SDS011;6714;53.056;8.690;2023-07-29T02:55:39;6.93;;;6.23;;
13291;SDS011;6714;53.056;8.690;2023-07-29T02:58:21;6.90;;;6.30;;
13291;SDS011;6714;53.056;8.690;2023-07-29T03:01:04;7.23;;;6.60;;
13291;SDS011;6714;53.056;8.690;2023-07-29T03:03:48;7.80;;;6.97;;
13291;SDS011;6714;53.056;8.690;2023-07-29T03:06:32;9.73;;;7.60;;
13291;SDS011;6714;53.056;8.690;2023-07-29T03:09:14;7.90;;;7.20;;
13291;SDS011;6714;53.056;8.690;2023-07-29T03:11:57;7.90;;;7.20;;
13291;SDS011;6714;53.056;8.690;2023-07-29T03:14:40;9.17;;;7.70;;
13291;SDS011;6714;53.056;8.690;2023-07-29T03:17:23;8.03;;;7.27;;
13291;SDS011;6714;53.056;8.690;2023-07-29T03:20:09;7.23;;;6.63;;
13291;SDS011;6714;53.056;8.690;2023-07-29T03:22:52;8.63;;;7.30;;
13291;SDS011;6714;53.056;8.690;2023-07-29T03:25:34;8.07;;;7.30;;
13291;SDS011;6714;53.056;8.690;2023-07-29T03:28:17;7.13;;;6.40;;
13291;SDS011;6714;53.056;8.690;2023-07-29T03:31:00;10.73;;;8.07;;
13291;SDS011;6714;53.056;8.690;2023-07-29T03:33:42;8.70;;;7.90;;
13291;SDS011;6714;53.056;8.690;2023-07-29T03:36:27;8.07;;;7.17;;
13291;SDS011;6714;53.056;8.690;2023-07-29T03:39:10;9.07;;;7.77;;
13291;SDS011;6714;53.056;8.690;2023-07-29T03:41:52;9.00;;;8.20;;
13291;SDS011;6714;53.056;8.690;2023-07-29T03:44:35;10.73;;;7.83;;
13291;SDS011;6714;53.056;8.690;2023-07-29T03:47:19;9.20;;;8.30;;
13291;SDS011;6714;53.056;8.690;2023-07-29T03:50:02;7.47;;;6.87;;
13291;SDS011;6714;53.056;8.690;2023-07-29T03:52:46;12.23;;;9.20;;
13291;SDS011;6714;53.056;8.690;2023-07-29T03:55:28;10.47;;;8.60;;
13291;SDS011;6714;53.056;8.690;2023-07-29T03:58:11;13.53;;;8.60;;
13291;SDS011;6714;53.056;8.690;2023-07-29T04:00:53;10.47;;;9.07;;
13291;SDS011;6714;53.056;8.690;2023-07-29T04:03:36;8.83;;;7.93;;
13291;SDS011;6714;53.056;8.690;2023-07-29T04:06:18;11.33;;;9.07;;
13291;SDS011;6714;53.056;8.690;2023-07-29T04:09:02;10.03;;;8.50;;
13291;SDS011;6714;53.056;8.690;2023-07-29T04:11:45;9.13;;;8.33;;
13291;SDS011;6714;53.056;8.690;2023-07-29T04:14:27;9.53;;;8.53;;
13291;SDS011;6714;53.056;8.690;2023-07-29T04:17:10;7.70;;;6.90;;
13291;SDS011;6714;53.056;8.690;2023-07-29T04:19:52;9.50;;;8.60;;
13291;SDS011;6714;53.056;8.690;2023-07-29T04:22:35;9.57;;;8.57;;
13291;SDS011;6714;53.056;8.690;2023-07-29T04:25:19;8.10;;;7.30;;
13291;SDS011;6714;53.056;8.690;2023-07-29T04:28:01;6.60;;;6.00;;
13291;SDS011;6714;53.056;8.690;2023-07-29T04:30:45;7.97;;;7.27;;
13291;SDS011;6714;53.056;8.690;2023-07-29T04:33:28;8.00;;;7.20;;
13291;SDS011;6714;53.056;8.690;2023-07-29T04:36:14;8.63;;;7.83;;
13291;SDS011;6714;53.056;8.690;2023-07-29T04:38:56;8.23;;;7.43;;
13291;SDS011;6714;53.056;8.690;2023-07-29T04:41:40;7.80;;;7.03;;
13291;SDS011;6714;53.056;8.690;2023-07-29T04:44:22;8.40;;;7.57;;
13291;SDS011;6714;53.056;8.690;2023-07-29T04:47:05;8.40;;;7.60;;
13291;SDS011;6714;53.056;8.690;2023-07-29T04:49:47;7.90;;;7.20;;
13291;SDS011;6714;53.056;8.690;2023-07-29T04:52:30;7.67;;;6.97;;
13291;SDS011;6714;53.056;8.690;2023-07-29T04:55:12;7.80;;;6.87;;
13291;SDS011;6714;53.056;8.690;2023-07-29T04:57:56;7.60;;;6.90;;
13291;SDS011;6714;53.056;8.690;2023-07-29T05:00:40;7.27;;;6.67;;
13291;SDS011;6714;53.056;8.690;2023-07-29T05:03:22;8.83;;;7.70;;
13291;SDS011;6714;53.056;8.690;2023-07-29T05:06:05;8.03;;;7.33;;
13291;SDS011;6714;53.056;8.690;2023-07-29T05:08:47;8.30;;;7.23;;
13291;SDS011;6714;53.056;8.690;2023-07-29T05:11:30;7.63;;;6.93;;
13291;SDS011;6714;53.056;8.690;2023-07-29T05:14:14;7.50;;;6.40;;
13291;SDS011;6714;53.056;8.690;2023-07-29T05:17:00;6.67;;;6.07;;
13291;SDS011;6714;53.056;8.690;2023-07-29T05:19:43;7.13;;;6.53;;
13291;SDS011;6714;53.056;8.690;2023-07-29T05:22:25;7.60;;;6.90;;
13291;SDS011;6714;53.056;8.690;2023-07-29T05:25:08;8.50;;;7.30;;
13291;SDS011;6714;53.056;8.690;2023-07-29T05:27:50;6.77;;;6.10;;
13291;SDS011;6714;53.056;8.690;2023-07-29T05:30:35;6.10;;;5.60;;
13291;SDS011;6714;53.056;8.690;2023-07-29T05:33:19;6.40;;;5.80;;
13291;SDS011;6714;53.056;8.690;2023-07-29T05:36:02;6.53;;;5.93;;
13291;SDS011;6714;53.056;8.690;2023-07-29T05:38:45;6.00;;;5.50;;
13291;SDS011;6714;53.056;8.690;2023-07-29T05:41:28;6.57;;;6.07;;
13291;SDS011;6714;53.056;8.690;2023-07-29T05:44:11;7.63;;;5.77;;
13291;SDS011;6714;53.056;8.690;2023-07-29T05:46:54;5.40;;;4.93;;
13291;SDS011;6714;53.056;8.690;2023-07-29T05:49:37;6.43;;;5.83;;
13291;SDS011;6714;53.056;8.690;2023-07-29T05:52:19;6.20;;;5.40;;
13291;SDS011;6714;53.056;8.690;2023-07-29T05:55:02;7.00;;;6.30;;
13291;SDS011;6714;53.056;8.690;2023-07-29T05:57:44;6.00;;;5.33;;
13291;SDS011;6714;53.056;8.690;2023-07-29T06:00:27;5.57;;;5.13;;
13291;SDS011;6714;53.056;8.690;2023-07-29T06:03:12;7.00;;;5.77;;
13291;SDS011;6714;53.056;8.690;2023-07-29T06:05:54;6.33;;;5.77;;
13291;SDS011;6714;53.056;8.690;2023-07-29T06:08:37;6.43;;;5.83;;
13291;SDS011;6714;53.056;8.690;2023-07-29T06:11:19;5.73;;;5.17;;
13291;SDS011;6714;53.056;8.690;2023-07-29T06:14:01;6.90;;;5.83;;
13291;SDS011;6714;53.056;8.690;2023-07-29T06:16:44;6.80;;;6.13;;
13291;SDS011;6714;53.056;8.690;2023-07-29T06:19:28;6.30;;;5.70;;
13291;SDS011;6714;53.056;8.690;2023-07-29T06:22:10;6.20;;;5.70;;
13291;SDS011;6714;53.056;8.690;2023-07-29T06:24:53;7.33;;;6.63;;
13291;SDS011;6714;53.056;8.690;2023-07-29T06:27:35;6.93;;;6.33;;
13291;SDS011;6714;53.056;8.690;2023-07-29T06:30:17;5.77;;;5.27;;
13291;SDS011;6714;53.056;8.690;2023-07-29T06:33:00;6.87;;;6.27;;
13291;SDS011;6714;53.056;8.690;2023-07-29T06:35:45;7.17;;;6.57;;
13291;SDS011;6714;53.056;8.690;2023-07-29T06:38:27;6.90;;;6.30;;
13291;SDS011;6714;53.056;8.690;2023-07-29T06:41:09;7.63;;;6.97;;
13291;SDS011;6714;53.056;8.690;2023-07-29T06:43:52;6.60;;;6.07;;
13291;SDS011;6714;53.056;8.690;2023-07-29T06:46:35;8.73;;;7.00;;
13291;SDS011;6714;53.056;8.690;2023-07-29T06:49:17;5.63;;;5.13;;
13291;SDS011;6714;53.056;8.690;2023-07-29T06:52:02;6.13;;;5.63;;
13291;SDS011;6714;53.056;8.690;2023-07-29T06:54:44;7.03;;;6.40;;
13291;SDS011;6714;53.056;8.690;2023-07-29T06:57:27;6.23;;;5.73;;
13291;SDS011;6714;53.056;8.690;2023-07-29T07:00:09;5.97;;;5.47;;
13291;SDS011;6714;53.056;8.690;2023-07-29T07:02:52;5.90;;;5.40;;
13291;SDS011;6714;53.056;8.690;2023-07-29T07:05:35;6.20;;;5.67;;
13291;SDS011;6714;53.056;8.690;2023-07-29T07:08:19;6.60;;;6.00;;
13291;SDS011;6714;53.056;8.690;2023-07-29T07:11:01;6.50;;;6.00;;
13291;SDS011;6714;53.056;8.690;2023-07-29T07:13:44;5.80;;;5.30;;
13291;SDS011;6714;53.056;8.690;2023-07-29T07:16:26;6.23;;;5.73;;
13291;SDS011;6714;53.056;8.690;2023-07-29T07:19:10;5.60;;;5.20;;
13291;SDS011;6714;53.056;8.690;2023-07-29T07:21:52;5.23;;;4.80;;
13291;SDS011;6714;53.056;8.690;2023-07-29T07:24:37;5.63;;;5.17;;
13291;SDS011;6714;53.056;8.690;2023-07-29T07:27:19;4.90;;;4.60;;
13291;SDS011;6714;53.056;8.690;2023-07-29T07:30:02;4.70;;;4.40;;
13291;SDS011;6714;53.056;8.690;2023-07-29T07:32:44;4.70;;;4.30;;
13291;SDS011;6714;53.056;8.690;2023-07-29T07:35:26;4.40;;;4.00;;
13291;SDS011;6714;53.056;8.690;2023-07-29T07:38:09;4.10;;;3.87;;
13291;SDS011;6714;53.056;8.690;2023-07-29T07:40:53;3.77;;;3.57;;
13291;SDS011;6714;53.056;8.690;2023-07-29T07:43:36;4.27;;;3.97;;
13291;SDS011;6714;53.056;8.690;2023-07-29T07:46:19;4.00;;;3.70;;
13291;SDS011;6714;53.056;8.690;2023-07-29T07:49:01;2.83;;;2.63;;
13291;SDS011;6714;53.056;8.690;2023-07-29T07:51:43;2.93;;;2.77;;
13291;SDS011;6714;53.056;8.690;2023-07-29T07:54:26;3.43;;;3.20;;
13291;SDS011;6714;53.056;8.690;2023-07-29T07:57:10;3.27;;;3.07;;
13291;SDS011;6714;53.056;8.690;2023-07-29T07:59:53;2.90;;;2.80;;
13291;SDS011;6714;53.056;8.690;2023-07-29T08:02:35;4.03;;;3.63;;
13291;SDS011;6714;53.056;8.690;2023-07-29T08:05:18;3.33;;;3.03;;
13291;SDS011;6714;53.056;8.690;2023-07-29T08:08:01;2.83;;;2.63;;
13291;SDS011;6714;53.056;8.690;2023-07-29T08:10:43;3.00;;;2.80;;
13291;SDS011;6714;53.056;8.690;2023-07-29T08:13:27;2.90;;;2.70;;
13291;SDS011;6714;53.056;8.690;2023-07-29T08:16:09;2.27;;;2.17;;
13291;SDS011;6714;53.056;8.690;2023-07-29T08:18:52;2.80;;;2.57;;
13291;SDS011;6714;53.056;8.690;2023-07-29T08:21:34;2.80;;;2.70;;
13291;SDS011;6714;53.056;8.690;2023-07-29T08:24:17;2.57;;;2.47;;
13291;SDS011;6714;53.056;8.690;2023-07-29T08:26:59;2.73;;;2.63;;
13291;SDS011;6714;53.056;8.690;2023-07-29T08:29:43;2.73;;;2.60;;
13291;SDS011;6714;53.056;8.690;2023-07-29T08:32:25;2.30;;;2.20;;
13291;SDS011;6714;53.056;8.690;2023-07-29T08:35:08;2.27;;;2.17;;
13291;SDS011;6714;53.056;8.690;2023-07-29T08:37:50;2.23;;;2.13;;
13291;SDS011;6714;53.056;8.690;2023-07-29T08:40:33;2.30;;;2.20;;
13291;SDS011;6714;53.056;8.690;2023-07-29T08:43:16;2.20;;;2.10;;
13291;SDS011;6714;53.056;8.690;2023-07-29T08:46:02;2.27;;;2.17;;
13291;SDS011;6714;53.056;8.690;2023-07-29T08:48:46;2.07;;;1.97;;
13291;SDS011;6714;53.056;8.690;2023-07-29T08:51:29;2.73;;;2.53;;
13291;SDS011;6714;53.056;8.690;2023-07-29T08:54:13;2.60;;;2.40;;
13291;SDS011;6714;53.056;8.690;2023-07-29T08:56:55;2.43;;;2.23;;
13291;SDS011;6714;53.056;8.690;2023-07-29T08:59:38;2.90;;;2.13;;
13291;SDS011;6714;53.056;8.690;2023-07-29T09:02:23;2.10;;;2.00;;
13291;SDS011;6714;53.056;8.690;2023-07-29T09:05:06;2.97;;;2.77;;
13291;SDS011;6714;53.056;8.690;2023-07-29T09:07:49;2.30;;;2.10;;
13291;SDS011;6714;53.056;8.690;2023-07-29T09:10:34;2.63;;;2.42;;
13291;SDS011;6714;53.056;8.690;2023-07-29T09:13:17;2.90;;;2.70;;
13291;SDS011;6714;53.056;8.690;2023-07-29T09:16:00;2.40;;;2.30;;
13291;SDS011;6714;53.056;8.690;2023-07-29T09:18:45;2.53;;;2.40;;
13291;SDS011;6714;53.056;8.690;2023-07-29T09:21:30;2.17;;;2.08;;
13291;SDS011;6714;53.056;8.690;2023-07-29T09:24:14;2.20;;;2.10;;
13291;SDS011;6714;53.056;8.690;2023-07-29T09:26:58;2.20;;;2.00;;
13291;SDS011;6714;53.056;8.690;2023-07-29T09:29:40;1.90;;;1.80;;
13291;SDS011;6714;53.056;8.690;2023-07-29T09:32:23;2.10;;;2.00;;
13291;SDS011;6714;53.056;8.690;2023-07-29T09:35:11;1.70;;;1.70;;
13291;SDS011;6714;53.056;8.690;2023-07-29T09:37:54;1.83;;;1.73;;
13291;SDS011;6714;53.056;8.690;2023-07-29T09:40:37;2.38;;;2.28;;
13291;SDS011;6714;53.056;8.690;2023-07-29T09:43:19;2.58;;;2.35;;
13291;SDS011;6714;53.056;8.690;2023-07-29T09:46:07;2.10;;;2.00;;
13291;SDS011;6714;53.056;8.690;2023-07-29T09:48:49;2.40;;;2.30;;
13291;SDS011;6714;53.056;8.690;2023-07-29T09:51:38;2.38;;;2.28;;
13291;SDS011;6714;53.056;8.690;2023-07-29T09:54:20;2.03;;;1.92;;
13291;SDS011;6714;53.056;8.690;2023-07-29T09:57:03;2.40;;;2.30;;
13291;SDS011;6714;53.056;8.690;2023-07-29T09:59:53;1.95;;;1.90;;
13291;SDS011;6714;53.056;8.690;2023-07-29T10:02:36;1.92;;;1.85;;
13291;SDS011;6714;53.056;8.690;2023-07-29T10:05:20;2.10;;;2.00;;
13291;SDS011;6714;53.056;8.690;2023-07-29T10:08:05;1.92;;;1.83;;
13291;SDS011;6714;53.056;8.690;2023-07-29T10:10:48;1.88;;;1.80;;
13291;SDS011;6714;53.056;8.690;2023-07-29T10:13:31;1.63;;;1.63;;
13291;SDS011;6714;53.056;8.690;2023-07-29T10:16:17;1.75;;;1.70;;
13291;SDS011;6714;53.056;8.690;2023-07-29T10:19:00;1.80;;;1.80;;
13291;SDS011;6714;53.056;8.690;2023-07-29T10:21:43;1.92;;;1.70;;
13291;SDS011;6714;53.056;8.690;2023-07-29T10:24:29;1.60;;;1.60;;
13291;SDS011;6714;53.056;8.690;2023-07-29T10:27:12;2.00;;;1.90;;
13291;SDS011;6714;53.056;8.690;2023-07-29T10:29:57;1.90;;;1.80;;
13291;SDS011;6714;53.056;8.690;2023-07-29T10:32:41;1.70;;;1.60;;
13291;SDS011;6714;53.056;8.690;2023-07-29T10:35:25;1.90;;;1.80;;
13291;SDS011;6714;53.056;8.690;2023-07-29T10:38:07;1.90;;;1.80;;
13291;SDS011;6714;53.056;8.690;2023-07-29T10:40:52;1.50;;;1.50;;
13291;SDS011;6714;53.056;8.690;2023-07-29T10:43:36;1.73;;;1.63;;
13291;SDS011;6714;53.056;8.690;2023-07-29T10:46:19;2.38;;;1.88;;
13291;SDS011;6714;53.056;8.690;2023-07-29T10:49:02;1.55;;;1.48;;
13291;SDS011;6714;53.056;8.690;2023-07-29T10:51:44;1.55;;;1.55;;
13291;SDS011;6714;53.056;8.690;2023-07-29T10:54:27;1.48;;;1.40;;
13291;SDS011;6714;53.056;8.690;2023-07-29T10:57:14;1.50;;;1.50;;
13291;SDS011;6714;53.056;8.690;2023-07-29T10:59:57;1.48;;;1.48;;
13291;SDS011;6714;53.056;8.690;2023-07-29T11:02:39;1.40;;;1.40;;
13291;SDS011;6714;53.056;8.690;2023-07-29T11:05:22;1.98;;;1.50;;
13291;SDS011;6714;53.056;8.690;2023-07-29T11:08:07;1.23;;;1.23;;
13291;SDS011;6714;53.056;8.690;2023-07-29T11:11:01;1.55;;;1.55;;
13291;SDS011;6714;53.056;8.690;2023-07-29T11:13:55;1.40;;;1.40;;
13291;SDS011;6714;53.056;8.690;2023-07-29T11:16:38;1.60;;;1.60;;
13291;SDS011;6714;53.056;8.690;2023-07-29T11:19:20;1.40;;;1.40;;
13291;SDS011;6714;53.056;8.690;2023-07-29T11:22:03;1.50;;;1.40;;
13291;SDS011;6714;53.056;8.690;2023-07-29T11:24:46;1.60;;;1.60;;
13291;SDS011;6714;53.056;8.690;2023-07-29T11:27:28;1.75;;;1.65;;
13291;SDS011;6714;53.056;8.690;2023-07-29T11:30:15;1.80;;;1.70;;
13291;SDS011;6714;53.056;8.690;2023-07-29T11:32:58;1.67;;;1.58;;
13291;SDS011;6714;53.056;8.690;2023-07-29T11:35:40;2.90;;;2.70;;
13291;SDS011;6714;53.056;8.690;2023-07-29T11:38:23;2.28;;;2.15;;
13291;SDS011;6714;53.056;8.690;2023-07-29T11:41:05;1.90;;;1.80;;
13291;SDS011;6714;53.056;8.690;2023-07-29T11:43:48;1.65;;;1.65;;
13291;SDS011;6714;53.056;8.690;2023-07-29T11:46:32;2.13;;;1.92;;
13291;SDS011;6714;53.056;8.690;2023-07-29T11:49:16;4.18;;;3.25;;
13291;SDS011;6714;53.056;8.690;2023-07-29T11:51:58;4.03;;;3.20;;
13291;SDS011;6714;53.056;8.690;2023-07-29T11:54:41;4.97;;;4.00;;
13291;SDS011;6714;53.056;8.690;2023-07-29T11:57:23;4.15;;;2.53;;
13291;SDS011;6714;53.056;8.690;2023-07-29T12:00:06;2.80;;;1.90;;
13291;SDS011;6714;53.056;8.690;2023-07-29T12:02:51;1.75;;;1.65;;
13291;SDS011;6714;53.056;8.690;2023-07-29T12:05:35;1.73;;;1.58;;
13291;SDS011;6714;53.056;8.690;2023-07-29T12:08:17;1.85;;;1.70;;
13291;SDS011;6714;53.056;8.690;2023-07-29T12:11:00;2.17;;;1.80;;
13291;SDS011;6714;53.056;8.690;2023-07-29T12:13:43;2.65;;;1.83;;
13291;SDS011;6714;53.056;8.690;2023-07-29T12:16:26;1.65;;;1.55;;
13291;SDS011;6714;53.056;8.690;2023-07-29T12:19:16;2.20;;;1.60;;
13291;SDS011;6714;53.056;8.690;2023-07-29T12:21:58;1.52;;;1.40;;
13291;SDS011;6714;53.056;8.690;2023-07-29T12:24:41;2.08;;;1.73;;
13291;SDS011;6714;53.056;8.690;2023-07-29T12:27:23;2.30;;;1.52;;
13291;SDS011;6714;53.056;8.690;2023-07-29T12:30:06;1.63;;;1.33;;
13291;SDS011;6714;53.056;8.690;2023-07-29T12:32:48;1.40;;;1.30;;
13291;SDS011;6714;53.056;8.690;2023-07-29T12:35:39;1.52;;;1.48;;
13291;SDS011;6714;53.056;8.690;2023-07-29T12:38:21;1.35;;;1.35;;
13291;SDS011;6714;53.056;8.690;2023-07-29T12:41:04;1.40;;;1.30;;
13291;SDS011;6714;53.056;8.690;2023-07-29T12:43:46;1.45;;;1.33;;
13291;SDS011;6714;53.056;8.690;2023-07-29T12:46:29;1.40;;;1.30;;
13291;SDS011;6714;53.056;8.690;2023-07-29T12:49:11;1.40;;;1.30;;
13291;SDS011;6714;53.056;8.690;2023-07-29T12:51:55;1.50;;;1.40;;
13291;SDS011;6714;53.056;8.690;2023-07-29T12:54:38;1.30;;;1.20;;
13291;SDS011;6714;53.056;8.690;2023-07-29T12:57:24;1.50;;;1.40;;
13291;SDS011;6714;53.056;8.690;2023-07-29T13:00:07;1.30;;;1.20;;
13291;SDS011;6714;53.056;8.690;2023-07-29T13:02:50;1.20;;;1.20;;
13291;SDS011;6714;53.056;8.690;2023-07-29T13:05:32;1.58;;;1.48;;
13291;SDS011;6714;53.056;8.690;2023-07-29T13:08:16;1.30;;;1.20;;
13291;SDS011;6714;53.056;8.690;2023-07-29T13:10:58;1.48;;;1.40;;
13291;SDS011;6714;53.056;8.690;2023-07-29T13:13:41;1.65;;;1.50;;
13291;SDS011;6714;53.056;8.690;2023-07-29T13:16:24;1.25;;;1.25;;
13291;SDS011;6714;53.056;8.690;2023-07-29T13:19:06;1.40;;;1.40;;
13291;SDS011;6714;53.056;8.690;2023-07-29T13:21:49;1.58;;;1.48;;
13291;SDS011;6714;53.056;8.690;2023-07-29T13:24:33;1.15;;;1.15;;
13291;SDS011;6714;53.056;8.690;2023-07-29T13:27:15;1.10;;;1.10;;
13291;SDS011;6714;53.056;8.690;2023-07-29T13:29:58;1.77;;;1.33;;
13291;SDS011;6714;53.056;8.690;2023-07-29T13:32:40;2.17;;;1.45;;
13291;SDS011;6714;53.056;8.690;2023-07-29T13:35:22;1.88;;;1.30;;
13291;SDS011;6714;53.056;8.690;2023-07-29T13:38:05;1.05;;;1.05;;
13291;SDS011;6714;53.056;8.690;2023-07-29T13:40:49;1.80;;;1.48;;
13291;SDS011;6714;53.056;8.690;2023-07-29T13:43:32;1.20;;;1.20;;
13291;SDS011;6714;53.056;8.690;2023-07-29T13:46:14;1.27;;;1.27;;
13291;SDS011;6714;53.056;8.690;2023-07-29T13:48:57;1.20;;;1.20;;
13291;SDS011;6714;53.056;8.690;2023-07-29T13:51:39;1.38;;;1.33;;
13291;SDS011;6714;53.056;8.690;2023-07-29T13:54:22;1.10;;;1.10;;
13291;SDS011;6714;53.056;8.690;2023-07-29T13:57:07;1.73;;;1.10;;
13291;SDS011;6714;53.056;8.690;2023-07-29T13:59:50;1.38;;;1.17;;
13291;SDS011;6714;53.056;8.690;2023-07-29T14:02:33;1.30;;;1.20;;
13291;SDS011;6714;53.056;8.690;2023-07-29T14:05:15;1.20;;;1.20;;
13291;SDS011;6714;53.056;8.690;2023-07-29T14:07:58;1.10;;;1.10;;
13291;SDS011;6714;53.056;8.690;2023-07-29T14:10:40;1.30;;;1.20;;
13291;SDS011;6714;53.056;8.690;2023-07-29T14:13:24;1.63;;;1.10;;
13291;SDS011;6714;53.056;8.690;2023-07-29T14:16:06;1.10;;;1.10;;
13291;SDS011;6714;53.056;8.690;2023-07-29T14:18:49;1.20;;;1.05;;
13291;SDS011;6714;53.056;8.690;2023-07-29T14:21:31;1.13;;;1.13;;
13291;SDS011;6714;53.056;8.690;2023-07-29T14:24:14;1.30;;;1.20;;
13291;SDS011;6714;53.056;8.690;2023-07-29T14:26:57;1.20;;;1.20;;
13291;SDS011;6714;53.056;8.690;2023-07-29T14:29:44;1.00;;;1.00;;
13291;SDS011;6714;53.056;8.690;2023-07-29T14:32:27;1.17;;;1.10;;
13291;SDS011;6714;53.056;8.690;2023-07-29T14:35:09;1.45;;;1.17;;
13291;SDS011;6714;53.056;8.690;2023-07-29T14:37:52;2.15;;;1.52;;
13291;SDS011;6714;53.056;8.690;2023-07-29T14:40:34;9.52;;;3.55;;
13291;SDS011;6714;53.056;8.690;2023-07-29T14:43:17;1.83;;;1.60;;
13291;SDS011;6714;53.056;8.690;2023-07-29T14:46:02;1.80;;;1.70;;
13291;SDS011;6714;53.056;8.690;2023-07-29T14:48:44;1.70;;;1.60;;
13291;SDS011;6714;53.056;8.690;2023-07-29T14:51:27;2.03;;;1.90;;
13291;SDS011;6714;53.056;8.690;2023-07-29T14:54:10;1.58;;;1.48;;
13291;SDS011;6714;53.056;8.690;2023-07-29T14:56:52;2.33;;;1.50;;
13291;SDS011;6714;53.056;8.690;2023-07-29T14:59:35;1.52;;;1.42;;
13291;SDS011;6714;53.056;8.690;2023-07-29T15:02:20;1.40;;;1.30;;
13291;SDS011;6714;53.056;8.690;2023-07-29T15:05:03;1.10;;;1.10;;
13291;SDS011;6714;53.056;8.690;2023-07-29T15:07:46;1.75;;;1.50;;
13291;SDS011;6714;53.056;8.690;2023-07-29T15:10:28;1.40;;;1.40;;
13291;SDS011;6714;53.056;8.690;2023-07-29T15:13:11;1.63;;;1.60;;
13291;SDS011;6714;53.056;8.690;2023-07-29T15:15:53;2.42;;;1.73;;
13291;SDS011;6714;53.056;8.690;2023-07-29T15:18:37;1.80;;;1.70;;
13291;SDS011;6714;53.056;8.690;2023-07-29T15:21:19;2.58;;;1.67;;
13291;SDS011;6714;53.056;8.690;2023-07-29T15:24:02;1.70;;;1.60;;
13291;SDS011;6714;53.056;8.690;2023-07-29T15:26:45;1.90;;;1.80;;
13291;SDS011;6714;53.056;8.690;2023-07-29T15:29:28;1.92;;;1.75;;
13291;SDS011;6714;53.056;8.690;2023-07-29T15:32:12;3.05;;;1.67;;
13291;SDS011;6714;53.056;8.690;2023-07-29T15:34:56;1.95;;;1.80;;
13291;SDS011;6714;53.056;8.690;2023-07-29T15:37:38;2.03;;;1.90;;
13291;SDS011;6714;53.056;8.690;2023-07-29T15:40:21;1.60;;;1.50;;
13291;SDS011;6714;53.056;8.690;2023-07-29T15:43:03;1.83;;;1.73;;
13291;SDS011;6714;53.056;8.690;2023-07-29T15:45:46;2.10;;;2.00;;
13291;SDS011;6714;53.056;8.690;2023-07-29T15:48:29;1.95;;;1.85;;
13291;SDS011;6714;53.056;8.690;2023-07-29T15:51:13;2.78;;;1.92;;
13291;SDS011;6714;53.056;8.690;2023-07-29T15:53:55;2.10;;;1.88;;
13291;SDS011;6714;53.056;8.690;2023-07-29T15:56:38;2.20;;;2.10;;
13291;SDS011;6714;53.056;8.690;2023-07-29T15:59:21;2.13;;;1.92;;
13291;SDS011;6714;53.056;8.690;2023-07-29T16:02:06;3.67;;;2.53;;
13291;SDS011;6714;53.056;8.690;2023-07-29T16:04:49;1.80;;;1.70;;
13291;SDS011;6714;53.056;8.690;2023-07-29T16:07:35;1.60;;;1.50;;
13291;SDS011;6714;53.056;8.690;2023-07-29T16:10:17;2.22;;;1.70;;
13291;SDS011;6714;53.056;8.690;2023-07-29T16:13:00;5.68;;;1.55;;
13291;SDS011;6714;53.056;8.690;2023-07-29T16:15:43;3.60;;;1.52;;
13291;SDS011;6714;53.056;8.690;2023-07-29T16:18:25;1.85;;;1.40;;
13291;SDS011;6714;53.056;8.690;2023-07-29T16:21:08;2.95;;;1.70;;
13291;SDS011;6714;53.056;8.690;2023-07-29T16:23:52;2.28;;;1.60;;
13291;SDS011;6714;53.056;8.690;2023-07-29T16:26:34;1.92;;;1.70;;
13291;SDS011;6714;53.056;8.690;2023-07-29T16:29:17;1.70;;;1.60;;
13291;SDS011;6714;53.056;8.690;2023-07-29T16:31:59;1.63;;;1.52;;
13291;SDS011;6714;53.056;8.690;2023-07-29T16:34:41;1.65;;;1.55;;
13291;SDS011;6714;53.056;8.690;2023-07-29T16:37:24;1.85;;;1.67;;